Argyle, Michigan
Current Conditions -  °F | °C
As of 8:36 PM on Monday 24 Nov 2014 (Local Time) from KBAX Reporting Station
Overcast Overcast  
Wind Chill: -5°   Ceiling: 2100
Heat Index:   Visibility: 10mi
Dew Point: -1°   Wind: 26mph
Humidity: 82%   Direction: 230°SW
Pressure: 29.46"   Gusts: 37mph
Location:  43.56°N, 82.94°W
Report Text: KBAX 250136Z AUTO 23023G32KT 10SM OVC021 02/M01 A2946 RMK AO2 T00211007
Loading
Personal Weather Stations






























Interactive Weather Map New forecast layout! Learn more

10-Day Weather Forecast

Advertisements
Track Severe Weather on mobile